Time;durP1;ratioP1;P1;durP2;ratioP2;P2;SDS_P1;SDS_P2;PMS_P1;PMS_P2;Temp;Humidity;BMP_temperature;BMP_pressure;BME280_temperature;BME280_humidity;BME280_pressure;Samples;Min_cycle;Max_cycle;Signal;HPM_P1;HPM_P2
2021/11/14 00:01:49;;;;;;;49.85;34.92;;;13.00;99.90;;;;;;5047503;28;20040;-57
2021/11/14 00:04:15;;;;;;;45.40;34.00;;;13.10;99.90;;;;;;5043952;28;20025;-59
2021/11/14 00:06:44;;;;;;;48.55;34.78;;;13.10;99.90;;;;;;5052303;28;20483;-59
2021/11/14 00:09:12;;;;;;;47.60;35.40;;;13.10;99.90;;;;;;5037474;28;20550;-57
2021/11/14 00:11:37;;;;;;;54.88;38.40;;;13.00;99.90;;;;;;5039658;28;20104;-58
2021/11/14 00:14:04;;;;;;;47.97;35.25;;;13.10;99.90;;;;;;5065841;28;20142;-59
2021/11/14 00:16:29;;;;;;;49.20;34.65;;;12.90;99.90;;;;;;5046082;28;20510;-59
2021/11/14 00:18:57;;;;;;;52.70;36.45;;;13.10;99.90;;;;;;5055465;28;20096;-57
2021/11/14 00:21:24;;;;;;;44.90;33.60;;;12.90;99.90;;;;;;5040149;28;20057;-56
2021/11/14 00:23:50;;;;;;;42.72;31.98;;;13.00;99.90;;;;;;5044986;28;20056;-59
2021/11/14 00:26:17;;;;;;;42.17;31.83;;;13.10;99.90;;;;;;5054346;28;20051;-59
2021/11/14 00:28:43;;;;;;;36.10;28.13;;;13.00;99.90;;;;;;5049257;28;20029;-58
2021/11/14 00:31:10;;;;;;;40.70;30.02;;;12.90;99.90;;;;;;5039642;28;20017;-59
2021/11/14 00:33:36;;;;;;;35.50;27.98;;;12.90;99.90;;;;;;5052021;28;20561;-58
2021/11/14 00:36:02;;;;;;;38.58;28.45;;;12.90;99.90;;;;;;5044567;28;20112;-58
2021/11/14 00:38:28;;;;;;;33.88;27.35;;;12.90;99.90;;;;;;5048401;28;20048;-58
2021/11/14 00:40:54;;;;;;;32.70;27.00;;;12.80;99.90;;;;;;5038745;28;20067;-58
2021/11/14 00:43:20;;;;;;;31.83;27.10;;;13.00;99.90;;;;;;5045453;28;20368;-58
2021/11/14 00:45:46;;;;;;;29.80;26.13;;;13.00;99.90;;;;;;5045897;28;20079;-58
2021/11/14 00:48:14;;;;;;;31.38;25.48;;;13.00;99.90;;;;;;5054121;28;20039;-59
2021/11/14 00:50:43;;;;;;;27.60;23.73;;;13.00;99.90;;;;;;5065543;28;20033;-57
2021/11/14 00:53:14;;;;;;;25.80;22.08;;;13.10;99.90;;;;;;5051247;28;20549;-57
2021/11/14 00:55:40;;;;;;;24.75;21.75;;;13.20;99.90;;;;;;5053713;28;20025;-56
2021/11/14 00:58:06;;;;;;;23.83;20.40;;;12.90;99.90;;;;;;5054206;28;20112;-56
2021/11/14 01:00:33;;;;;;;23.10;20.73;;;13.10;99.90;;;;;;5047729;28;20540;-59
2021/11/14 01:03:00;;;;;;;21.17;18.88;;;12.90;99.90;;;;;;5045037;28;20049;-58
2021/11/14 01:05:27;;;;;;;24.38;21.38;;;12.90;99.90;;;;;;5047078;28;20086;-58
2021/11/14 01:07:53;;;;;;;25.77;22.95;;;12.90;99.90;;;;;;5051993;28;20040;-57
2021/11/14 01:10:24;;;;;;;26.15;23.35;;;12.80;99.90;;;;;;5051609;28;20021;-59
2021/11/14 01:12:50;;;;;;;27.83;23.90;;;13.00;99.90;;;;;;5050037;28;20120;-58
2021/11/14 01:15:17;;;;;;;26.75;23.88;;;13.00;99.90;;;;;;5048102;28;20064;-58
2021/11/14 01:17:44;;;;;;;29.05;25.67;;;12.80;99.90;;;;;;5036280;28;20480;-57
2021/11/14 01:20:13;;;;;;;30.75;26.83;;;12.90;99.90;;;;;;5036952;28;20084;-58
2021/11/14 01:22:40;;;;;;;32.10;27.83;;;12.80;99.90;;;;;;5049648;28;20033;-57
2021/11/14 01:25:08;;;;;;;35.97;30.23;;;12.70;99.90;;;;;;5049014;28;20108;-57
2021/11/14 01:27:34;;;;;;;35.90;30.15;;;12.80;99.90;;;;;;5053568;28;20174;-57
2021/11/14 01:29:59;;;;;;;35.50;28.58;;;13.00;99.90;;;;;;5040535;28;20075;-57
2021/11/14 01:32:25;;;;;;;34.55;26.85;;;13.00;99.90;;;;;;5047786;28;20033;-58
2021/11/14 01:34:51;;;;;;;33.50;27.05;;;13.10;99.90;;;;;;5053157;28;20025;-59
2021/11/14 01:37:16;;;;;;;29.92;24.55;;;13.00;99.90;;;;;;5045175;28;20486;-59
2021/11/14 01:39:42;;;;;;;29.73;24.77;;;13.00;99.90;;;;;;5049300;28;20022;-55
2021/11/14 01:42:08;;;;;;;28.05;24.58;;;13.00;99.90;;;;;;5051647;28;20064;-58
2021/11/14 01:44:34;;;;;;;28.05;22.65;;;13.00;99.90;;;;;;5053945;28;20126;-56
2021/11/14 01:46:59;;;;;;;25.38;19.60;;;13.10;99.90;;;;;;5043952;28;20025;-57
2021/11/14 01:49:25;;;;;;;25.90;19.30;;;12.80;99.90;;;;;;5053913;28;20391;-58
2021/11/14 01:51:52;;;;;;;21.35;16.58;;;13.00;99.90;;;;;;5038568;28;20386;-57
2021/11/14 01:54:19;;;;;;;18.77;16.00;;;13.00;99.90;;;;;;5049184;28;20025;-58
2021/11/14 01:56:48;;;;;;;21.15;17.05;;;12.80;99.90;;;;;;5057889;28;20360;-58
2021/11/14 01:59:16;;;;;;;19.70;16.20;;;12.90;99.90;;;;;;5049965;28;20421;-58
2021/11/14 02:01:42;;;;;;;20.05;16.80;;;12.90;99.90;;;;;;5043904;28;20499;-59
2021/11/14 02:04:08;;;;;;;23.42;17.13;;;12.80;99.90;;;;;;5035926;28;20113;-55
2021/11/14 02:06:36;;;;;;;21.33;18.02;;;12.90;99.90;;;;;;5039737;28;20124;-58
2021/11/14 02:09:04;;;;;;;21.50;18.10;;;12.90;99.90;;;;;;5043505;28;20471;-59
2021/11/14 02:11:30;;;;;;;23.20;17.92;;;13.00;99.90;;;;;;5040259;28;20037;-58
2021/11/14 02:13:56;;;;;;;28.50;20.25;;;13.00;99.90;;;;;;5033785;28;20434;-58
2021/11/14 02:16:26;;;;;;;25.67;20.40;;;12.80;99.90;;;;;;5042185;28;20058;-57
2021/11/14 02:18:52;;;;;;;29.90;21.50;;;12.90;99.90;;;;;;5058704;28;20025;-59
2021/11/14 02:21:19;;;;;;;27.38;21.73;;;13.10;99.90;;;;;;5053781;28;20056;-58
2021/11/14 02:23:44;;;;;;;32.05;22.85;;;12.90;99.90;;;;;;5032243;28;20044;-58
2021/11/14 02:26:11;;;;;;;28.55;21.77;;;13.10;99.90;;;;;;5040843;28;20021;-58
2021/11/14 02:28:36;;;;;;;28.52;21.77;;;13.00;99.90;;;;;;5052230;28;20028;-58
2021/11/14 02:31:02;;;;;;;25.90;21.33;;;13.20;99.90;;;;;;5044256;28;20018;-58
2021/11/14 02:33:29;;;;;;;31.02;21.52;;;13.10;99.90;;;;;;5031370;28;20037;-57
2021/11/14 02:35:59;;;;;;;26.52;19.48;;;13.20;99.90;;;;;;5036600;28;20029;-57
2021/11/14 02:38:25;;;;;;;28.08;20.60;;;13.10;99.90;;;;;;5053262;28;20037;-58
2021/11/14 02:40:51;;;;;;;26.33;19.73;;;13.00;99.90;;;;;;5052071;28;20104;-56
2021/11/14 02:43:18;;;;;;;26.95;19.38;;;13.00;99.90;;;;;;5052918;28;20462;-58
2021/11/14 02:45:44;;;;;;;27.20;20.20;;;13.00;99.90;;;;;;5049403;28;20403;-59
2021/11/14 02:48:12;;;;;;;23.77;18.73;;;13.20;99.90;;;;;;5050342;28;20037;-59
2021/11/14 02:50:38;;;;;;;20.27;16.60;;;13.00;99.90;;;;;;5052157;28;20035;-59
2021/11/14 02:53:05;;;;;;;24.83;18.27;;;13.10;99.90;;;;;;5052306;28;20103;-59
2021/11/14 02:55:32;;;;;;;19.48;15.13;;;13.10;99.90;;;;;;5055953;28;20489;-58
2021/11/14 02:57:58;;;;;;;18.67;15.35;;;13.10;99.90;;;;;;5052104;28;20029;-59
2021/11/14 03:00:38;;;;;;;20.15;15.80;;;13.10;99.90;;;;;;5052324;28;20041;-56
2021/11/14 03:03:04;;;;;;;21.13;16.38;;;13.10;99.90;;;;;;5046928;28;20036;-58
2021/11/14 03:05:30;;;;;;;19.77;15.57;;;13.20;99.90;;;;;;5059233;28;20401;-55
2021/11/14 03:07:56;;;;;;;23.90;17.88;;;13.20;99.90;;;;;;5038368;28;20034;-58
2021/11/14 03:10:27;;;;;;;24.60;17.92;;;13.10;99.90;;;;;;5034595;28;20036;-55
2021/11/14 03:13:06;;;;;;;21.13;17.15;;;13.30;99.90;;;;;;5032881;28;20057;-58
2021/11/14 03:15:35;;;;;;;22.67;17.83;;;13.30;99.90;;;;;;5033104;28;20084;-57
2021/11/14 03:18:00;;;;;;;22.63;17.75;;;13.20;99.90;;;;;;5042306;28;20075;-56
2021/11/14 03:20:27;;;;;;;21.95;17.17;;;13.20;99.90;;;;;;5051916;28;20515;-57
2021/11/14 03:22:53;;;;;;;24.25;17.65;;;13.10;99.90;;;;;;5052338;28;20043;-57
2021/11/14 03:25:21;;;;;;;22.27;16.90;;;13.30;99.90;;;;;;5040705;28;20463;-59
2021/11/14 03:27:47;;;;;;;25.60;17.75;;;13.10;99.90;;;;;;5035970;28;20503;-56
2021/11/14 03:30:16;;;;;;;26.38;18.00;;;13.10;99.90;;;;;;5036659;28;20037;-59
2021/11/14 03:32:42;;;;;;;27.35;19.75;;;13.20;99.90;;;;;;5052884;28;20021;-58
2021/11/14 03:35:08;;;;;;;28.83;21.13;;;13.20;99.90;;;;;;5055266;28;20036;-59
2021/11/14 03:37:34;;;;;;;32.33;21.52;;;13.30;99.90;;;;;;5039368;28;20102;-57
2021/11/14 03:40:00;;;;;;;31.08;22.85;;;13.20;99.90;;;;;;5036619;28;20025;-59
2021/11/14 03:42:26;;;;;;;32.60;24.20;;;13.20;99.90;;;;;;5045467;28;20040;-57
2021/11/14 03:44:52;;;;;;;34.22;24.65;;;13.20;99.90;;;;;;5055046;28;20021;-57
2021/11/14 03:47:17;;;;;;;34.70;24.75;;;13.20;99.90;;;;;;5050740;28;20028;-58
2021/11/14 03:49:43;;;;;;;33.58;25.23;;;13.30;99.90;;;;;;5056026;28;20091;-57
2021/11/14 03:52:10;;;;;;;31.98;23.35;;;13.20;99.90;;;;;;5043029;28;20032;-57
2021/11/14 03:54:37;;;;;;;38.97;25.10;;;13.20;99.90;;;;;;5036850;28;20061;-58
2021/11/14 03:57:03;;;;;;;34.95;24.50;;;13.30;99.90;;;;;;5051317;28;20030;-57
2021/11/14 03:59:29;;;;;;;36.78;24.73;;;13.30;99.90;;;;;;5056369;28;20033;-58
2021/11/14 04:01:55;;;;;;;37.33;24.92;;;13.30;99.90;;;;;;5044690;28;20044;-57
2021/11/14 04:04:20;;;;;;;36.30;23.90;;;13.20;99.90;;;;;;5037567;28;20052;-58
2021/11/14 04:06:46;;;;;;;33.22;23.10;;;13.30;99.90;;;;;;5035898;28;20476;-57
2021/11/14 04:09:12;;;;;;;34.95;23.33;;;13.20;99.90;;;;;;5052595;28;20028;-59
2021/11/14 04:11:37;;;;;;;31.83;20.38;;;13.20;99.90;;;;;;5043092;28;20068;-59
2021/11/14 04:14:03;;;;;;;30.70;22.25;;;13.20;99.90;;;;;;5055194;28;20031;-58
2021/11/14 04:16:28;;;;;;;30.65;18.70;;;13.20;99.90;;;;;;5048865;28;20455;-58
2021/11/14 04:18:54;;;;;;;26.88;18.65;;;13.20;99.90;;;;;;5035664;28;20065;-59
2021/11/14 04:21:20;;;;;;;21.55;16.95;;;13.20;99.90;;;;;;5035429;28;20053;-58
2021/11/14 04:23:46;;;;;;;23.02;15.68;;;13.20;99.90;;;;;;5051543;28;20454;-58
2021/11/14 04:26:12;;;;;;;22.48;15.82;;;13.30;99.90;;;;;;5035256;28;20040;-59
2021/11/14 04:28:38;;;;;;;22.25;15.35;;;13.20;99.90;;;;;;5035471;28;20029;-59
2021/11/14 04:31:04;;;;;;;20.27;14.40;;;13.10;99.90;;;;;;5052605;28;20028;-59
2021/11/14 04:33:30;;;;;;;21.15;14.70;;;13.20;99.90;;;;;;5039602;28;20025;-57
2021/11/14 04:35:56;;;;;;;21.50;14.60;;;13.20;99.90;;;;;;5033957;28;20510;-59
2021/11/14 04:38:22;;;;;;;14.35;10.50;;;13.10;99.90;;;;;;5048080;28;20053;-57
2021/11/14 04:40:50;;;;;;;12.20;9.43;;;13.20;99.90;;;;;;5038108;28;20126;-58
2021/11/14 04:43:19;;;;;;;16.17;10.63;;;13.10;99.90;;;;;;5035121;28;20135;-59
2021/11/14 04:45:47;;;;;;;11.07;7.95;;;13.00;99.90;;;;;;5052425;28;20536;-58
2021/11/14 04:48:14;;;;;;;13.75;8.70;;;13.10;99.90;;;;;;5054065;28;20052;-59
2021/11/14 04:50:40;;;;;;;11.73;9.20;;;13.10;99.90;;;;;;5054677;28;20029;-59
2021/11/14 04:53:06;;;;;;;9.18;7.28;;;13.30;99.90;;;;;;5042936;28;20034;-57
2021/11/14 04:55:34;;;;;;;11.65;7.95;;;13.10;99.90;;;;;;5041430;28;20070;-58
2021/11/14 04:58:00;;;;;;;10.90;7.80;;;13.10;99.90;;;;;;5053712;28;20430;-58
2021/11/14 05:00:30;;;;;;;9.52;7.28;;;13.10;99.90;;;;;;5054722;28;20029;-58
2021/11/14 05:02:56;;;;;;;7.93;6.60;;;13.00;99.90;;;;;;5044405;28;20045;-59
2021/11/14 05:05:22;;;;;;;9.90;7.20;;;13.00;99.90;;;;;;5035019;28;20357;-58
2021/11/14 05:07:48;;;;;;;9.20;7.20;;;13.10;99.90;;;;;;5038348;28;20029;-57
2021/11/14 05:10:14;;;;;;;9.77;7.40;;;13.10;99.90;;;;;;5050766;28;20116;-58
2021/11/14 05:12:40;;;;;;;11.25;7.97;;;13.10;99.90;;;;;;5053949;28;20471;-58
2021/11/14 05:15:07;;;;;;;10.30;7.40;;;13.00;99.90;;;;;;5064988;28;20056;-58
2021/11/14 05:17:34;;;;;;;9.50;6.85;;;13.10;99.90;;;;;;5053582;28;20021;-58
2021/11/14 05:19:59;;;;;;;9.90;7.20;;;13.00;99.90;;;;;;5053049;28;20501;-58
2021/11/14 05:22:25;;;;;;;9.05;6.72;;;13.00;99.90;;;;;;5053374;28;20036;-57
2021/11/14 05:24:51;;;;;;;6.57;5.72;;;13.00;99.90;;;;;;5053914;28;20021;-59
2021/11/14 05:27:16;;;;;;;5.60;5.03;;;13.00;99.90;;;;;;5052988;28;20040;-57
2021/11/14 05:29:42;;;;;;;6.63;5.50;;;12.90;99.90;;;;;;5054139;28;20036;-57
2021/11/14 05:32:08;;;;;;;5.32;4.53;;;12.90;99.90;;;;;;5051488;28;20037;-57
2021/11/14 05:34:34;;;;;;;6.63;5.18;;;12.90;99.90;;;;;;5036209;28;20033;-56
2021/11/14 05:37:00;;;;;;;6.22;5.25;;;12.90;99.90;;;;;;5051489;28;20105;-58
2021/11/14 05:39:25;;;;;;;6.63;5.22;;;13.10;99.90;;;;;;5032751;28;20025;-57
2021/11/14 05:41:51;;;;;;;7.35;4.75;;;12.80;99.90;;;;;;5033543;28;20483;-56
2021/11/14 05:44:17;;;;;;;5.22;4.50;;;12.90;99.90;;;;;;5034310;28;20053;-59
2021/11/14 05:46:44;;;;;;;6.65;4.82;;;12.80;99.90;;;;;;5043707;28;20021;-58
2021/11/14 05:49:10;;;;;;;8.52;4.85;;;12.70;99.90;;;;;;5052653;28;20056;-57
2021/11/14 05:51:41;;;;;;;5.45;4.70;;;12.80;99.90;;;;;;5052542;28;20093;-57
2021/11/14 05:54:06;;;;;;;6.25;5.40;;;12.80;99.90;;;;;;5035245;28;20113;-59
2021/11/14 05:56:33;;;;;;;6.97;5.95;;;12.80;99.90;;;;;;5033436;28;20128;-58
2021/11/14 06:01:40;;;;;;;6.93;5.13;;;12.60;99.90;;;;;;5045180;28;20045;-55
2021/11/14 06:04:19;;;;;;;5.50;4.10;;;12.70;99.90;;;;;;5050631;28;20041;-56
2021/11/14 06:06:44;;;;;;;5.75;4.45;;;12.60;99.90;;;;;;5053668;28;20103;-58
2021/11/14 06:09:10;;;;;;;5.90;4.30;;;12.70;99.90;;;;;;5035174;28;20112;-56
2021/11/14 06:11:37;;;;;;;6.90;5.60;;;12.60;99.90;;;;;;5033413;28;20019;-59
2021/11/14 06:14:03;;;;;;;5.25;4.10;;;12.50;99.90;;;;;;5048769;28;20036;-59
2021/11/14 06:16:29;;;;;;;5.95;4.25;;;12.50;99.90;;;;;;5053140;28;20359;-57
2021/11/14 06:18:56;;;;;;;3.90;3.50;;;12.60;99.90;;;;;;5052492;28;20036;-59
2021/11/14 06:21:22;;;;;;;4.88;3.97;;;12.50;99.90;;;;;;5059557;28;20503;-54
2021/11/14 06:23:51;;;;;;;5.57;3.80;;;12.40;99.90;;;;;;5051706;28;20405;-54
2021/11/14 06:26:18;;;;;;;6.03;4.85;;;12.50;99.90;;;;;;5051780;28;20021;-57
2021/11/14 06:28:46;;;;;;;5.47;4.00;;;12.50;99.90;;;;;;5047317;28;20456;-56
2021/11/14 06:31:12;;;;;;;5.35;3.40;;;12.50;99.90;;;;;;5049717;28;20025;-59
2021/11/14 06:33:38;;;;;;;7.15;4.00;;;12.40;99.90;;;;;;5037635;28;20485;-58
2021/11/14 06:36:04;;;;;;;3.33;3.03;;;12.60;99.90;;;;;;5049179;28;20029;-59
2021/11/14 06:38:30;;;;;;;7.25;3.33;;;12.40;99.90;;;;;;5051729;28;20119;-57
2021/11/14 06:40:56;;;;;;;3.60;2.92;;;12.40;99.90;;;;;;5051918;28;20032;-58
2021/11/14 06:43:22;;;;;;;3.85;3.20;;;12.40;99.90;;;;;;5048915;28;20040;-56
2021/11/14 06:45:47;;;;;;;3.25;2.72;;;12.50;99.90;;;;;;5050834;28;20032;-58
2021/11/14 06:48:13;;;;;;;2.88;2.47;;;12.40;99.90;;;;;;5049565;28;20029;-59
2021/11/14 06:50:39;;;;;;;4.68;3.38;;;12.40;99.90;;;;;;5049265;28;20024;-58
2021/11/14 06:53:05;;;;;;;5.45;3.80;;;12.30;99.90;;;;;;5046606;28;20091;-59
2021/11/14 06:55:30;;;;;;;4.70;3.88;;;12.40;99.90;;;;;;5042558;28;20024;-56
2021/11/14 06:57:56;;;;;;;5.20;4.07;;;12.50;99.90;;;;;;5051813;28;20029;-58
2021/11/14 07:00:24;;;;;;;5.40;3.85;;;12.40;99.90;;;;;;5052599;28;20032;-59
2021/11/14 07:02:50;;;;;;;5.25;3.80;;;12.40;99.90;;;;;;5054307;28;20041;-59
2021/11/14 07:05:16;;;;;;;4.18;3.72;;;12.50;99.90;;;;;;5056582;28;20029;-57
2021/11/14 07:07:43;;;;;;;6.47;4.35;;;12.50;99.90;;;;;;5053215;28;20022;-57
2021/11/14 07:10:10;;;;;;;4.32;3.60;;;12.50;99.90;;;;;;5053868;28;20021;-55
2021/11/14 07:12:37;;;;;;;5.45;3.92;;;12.50;99.90;;;;;;5064345;28;20036;-57
2021/11/14 07:15:07;;;;;;;5.53;3.67;;;12.80;99.90;;;;;;5047978;28;20027;-53
2021/11/14 07:17:33;;;;;;;6.15;3.95;;;12.50;99.90;;;;;;5055693;28;20025;-58
2021/11/14 07:20:00;;;;;;;4.78;3.95;;;12.60;99.90;;;;;;5055212;28;20036;-58
2021/11/14 07:22:26;;;;;;;4.82;3.67;;;12.60;99.90;;;;;;5054137;28;20394;-56
2021/11/14 07:24:51;;;;;;;3.60;3.15;;;12.40;99.90;;;;;;5036952;28;20029;-55
2021/11/14 07:27:17;;;;;;;5.22;3.80;;;12.60;99.90;;;;;;5036821;28;20021;-58
2021/11/14 07:29:43;;;;;;;5.40;3.88;;;12.70;99.90;;;;;;5048207;28;20104;-57
2021/11/14 07:32:09;;;;;;;4.53;3.22;;;12.70;99.90;;;;;;5056397;28;20035;-55
2021/11/14 07:34:35;;;;;;;3.72;3.05;;;12.70;99.90;;;;;;5038051;28;20048;-57
2021/11/14 07:37:01;;;;;;;3.42;2.95;;;12.80;99.90;;;;;;5036694;28;20032;-57
2021/11/14 07:39:26;;;;;;;3.60;2.83;;;12.80;99.90;;;;;;5046295;28;20382;-58
2021/11/14 07:41:52;;;;;;;4.60;3.70;;;12.90;99.90;;;;;;5036318;28;20038;-56
2021/11/14 07:44:18;;;;;;;4.80;3.88;;;13.00;99.90;;;;;;5050412;28;20033;-58
2021/11/14 07:46:43;;;;;;;5.38;3.42;;;12.90;99.90;;;;;;5051629;28;20029;-58
2021/11/14 07:49:09;;;;;;;6.82;3.67;;;12.90;99.90;;;;;;5041722;28;20112;-59
2021/11/14 07:51:35;;;;;;;3.75;3.20;;;12.80;99.90;;;;;;5041186;28;20081;-56
2021/11/14 07:54:01;;;;;;;4.20;3.42;;;12.80;99.90;;;;;;5071354;28;20032;-58
2021/11/14 07:56:27;;;;;;;3.95;3.55;;;12.80;99.90;;;;;;5069183;28;20036;-56
2021/11/14 07:58:53;;;;;;;3.63;2.90;;;12.90;99.90;;;;;;5054972;28;20033;-57
2021/11/14 08:01:19;;;;;;;4.55;3.55;;;12.80;99.90;;;;;;5055751;28;20025;-57
2021/11/14 08:03:44;;;;;;;3.75;3.05;;;13.00;99.90;;;;;;5054625;28;20040;-57
2021/11/14 08:06:10;;;;;;;4.20;3.20;;;12.90;99.90;;;;;;5055889;28;20036;-56
2021/11/14 08:08:36;;;;;;;3.38;3.08;;;12.90;99.90;;;;;;5052015;28;20124;-60
2021/11/14 08:11:02;;;;;;;3.10;2.78;;;12.90;99.90;;;;;;5054177;28;20036;-58
2021/11/14 08:13:27;;;;;;;3.08;2.80;;;12.80;99.90;;;;;;5053368;28;20207;-59
2021/11/14 08:15:53;;;;;;;4.28;3.05;;;12.80;99.90;;;;;;5054300;28;20033;-58
2021/11/14 08:18:19;;;;;;;4.05;3.22;;;12.90;99.90;;;;;;5046418;28;20056;-54
2021/11/14 08:20:46;;;;;;;2.75;2.55;;;12.90;99.90;;;;;;5039263;28;20101;-55
2021/11/14 08:23:14;;;;;;;5.05;2.90;;;12.90;99.90;;;;;;5054015;28;20037;-57
2021/11/14 08:25:40;;;;;;;3.53;2.85;;;12.90;99.90;;;;;;5055510;28;20510;-57
2021/11/14 08:28:05;;;;;;;4.00;3.10;;;12.90;99.90;;;;;;5054519;28;20056;-58
2021/11/14 08:30:31;;;;;;;3.55;3.05;;;13.00;99.90;;;;;;5055149;28;20029;-56
2021/11/14 08:32:57;;;;;;;4.13;2.70;;;12.90;99.90;;;;;;5050704;28;20025;-58
2021/11/14 08:35:23;;;;;;;3.67;2.60;;;13.10;99.90;;;;;;5050706;28;20112;-59
2021/11/14 08:37:52;;;;;;;2.45;2.25;;;13.00;99.90;;;;;;5052451;28;20099;-58
2021/11/14 08:40:18;;;;;;;2.55;2.35;;;12.90;99.90;;;;;;5035372;28;20044;-56
2021/11/14 08:42:44;;;;;;;3.05;2.70;;;13.10;99.90;;;;;;5051700;28;20494;-54
2021/11/14 08:45:10;;;;;;;2.03;1.83;;;13.00;99.90;;;;;;5055020;28;20048;-56
2021/11/14 08:47:36;;;;;;;2.85;2.28;;;12.90;99.90;;;;;;5055233;28;20071;-57
2021/11/14 08:50:04;;;;;;;3.80;2.40;;;13.00;99.90;;;;;;5053128;28;20029;-57
2021/11/14 08:52:29;;;;;;;2.42;2.22;;;12.90;99.90;;;;;;5051776;28;20029;-57
2021/11/14 08:54:55;;;;;;;2.95;2.05;;;13.00;99.90;;;;;;5036200;28;20364;-56
2021/11/14 08:57:21;;;;;;;2.40;1.70;;;12.90;99.90;;;;;;5040887;28;20040;-58
2021/11/14 08:59:48;;;;;;;2.03;1.75;;;12.90;99.90;;;;;;5057554;28;20040;-55
2021/11/14 09:02:15;;;;;;;2.13;1.88;;;12.90;99.90;;;;;;5054726;28;20045;-58
2021/11/14 09:04:41;;;;;;;2.10;1.90;;;13.00;99.90;;;;;;5053206;28;20033;-58
2021/11/14 09:07:07;;;;;;;2.10;1.50;;;13.00;99.90;;;;;;5065764;28;20487;-57
2021/11/14 09:09:34;;;;;;;3.47;2.60;;;13.00;99.90;;;;;;5052391;28;20032;-58
2021/11/14 09:12:00;;;;;;;5.28;2.40;;;12.90;99.90;;;;;;5053295;28;20017;-57
2021/11/14 09:14:26;;;;;;;3.22;2.30;;;12.80;99.90;;;;;;5039843;28;20041;-59
2021/11/14 09:17:19;;;;;;;3.70;2.13;;;12.80;99.90;;;;;;5053467;28;20486;-58
2021/11/14 09:19:47;;;;;;;3.55;2.40;;;13.10;99.90;;;;;;5053256;28;20086;-59
2021/11/14 09:22:12;;;;;;;3.10;2.38;;;13.00;99.90;;;;;;5052853;28;20063;-58
2021/11/14 09:24:38;;;;;;;2.70;2.13;;;13.00;99.90;;;;;;5052308;28;20029;-58
2021/11/14 09:27:04;;;;;;;4.57;2.63;;;13.20;99.90;;;;;;5054161;28;20025;-58
2021/11/14 09:29:30;;;;;;;3.33;2.88;;;13.20;99.90;;;;;;5053059;28;20088;-57
2021/11/14 09:31:56;;;;;;;3.50;2.42;;;13.00;99.90;;;;;;5054126;28;20033;-57
2021/11/14 09:34:21;;;;;;;3.10;2.45;;;13.00;99.90;;;;;;5050484;28;20039;-58
2021/11/14 09:36:48;;;;;;;2.75;2.45;;;13.10;99.90;;;;;;5052694;28;20046;-57
2021/11/14 09:39:14;;;;;;;3.55;2.70;;;13.10;99.90;;;;;;5050901;28;20056;-60
2021/11/14 09:41:47;;;;;;;4.20;3.17;;;13.00;99.90;;;;;;5053879;28;20076;-54
2021/11/14 09:44:15;;;;;;;3.17;2.30;;;13.10;99.90;;;;;;5053013;28;20035;-58
2021/11/14 09:46:50;;;;;;;1.83;1.73;;;13.10;99.90;;;;;;5051301;28;20017;-57
2021/11/14 09:49:18;;;;;;;2.75;1.95;;;13.10;99.90;;;;;;5057005;28;20395;-57
2021/11/14 09:51:46;;;;;;;2.97;1.70;;;13.20;99.90;;;;;;5052657;28;20049;-57
2021/11/14 09:54:12;;;;;;;1.45;1.35;;;13.10;99.90;;;;;;5044407;28;20022;-57
2021/11/14 09:56:38;;;;;;;2.17;1.98;;;13.20;99.90;;;;;;5035377;28;20036;-56
2021/11/14 09:59:04;;;;;;;3.42;2.05;;;13.20;99.90;;;;;;5051565;28;20033;-57
2021/11/14 10:01:29;;;;;;;2.20;1.98;;;13.10;99.90;;;;;;5052503;28;20501;-56
2021/11/14 10:03:55;;;;;;;3.38;2.25;;;13.10;99.90;;;;;;5056161;28;20504;-57
2021/11/14 10:06:26;;;;;;;3.38;2.10;;;13.10;99.90;;;;;;5072480;28;20025;-59
2021/11/14 10:08:52;;;;;;;3.60;2.78;;;13.10;99.90;;;;;;5051264;28;20516;-59
2021/11/14 10:11:18;;;;;;;3.00;2.70;;;13.10;99.90;;;;;;5053737;28;20100;-58
2021/11/14 10:13:48;;;;;;;3.67;2.60;;;13.10;99.90;;;;;;5052560;28;20036;-58
2021/11/14 10:16:20;;;;;;;2.08;1.85;;;13.00;99.90;;;;;;5052716;28;20040;-57
2021/11/14 10:18:54;;;;;;;2.83;2.35;;;13.10;99.90;;;;;;5042602;28;20029;-57
2021/11/14 10:21:23;;;;;;;2.55;2.10;;;13.10;99.90;;;;;;5051739;28;20122;-58
2021/11/14 10:23:50;;;;;;;2.95;1.80;;;13.10;99.90;;;;;;5043211;28;20376;-58
2021/11/14 10:26:16;;;;;;;2.28;1.48;;;13.00;99.90;;;;;;5033230;28;20026;-55
2021/11/14 10:28:45;;;;;;;2.53;1.38;;;12.90;99.90;;;;;;5042785;28;20025;-58
2021/11/14 10:31:12;;;;;;;2.25;1.15;;;12.90;99.90;;;;;;5045335;28;20033;-58
2021/11/14 10:33:40;;;;;;;1.27;0.93;;;13.00;99.90;;;;;;5051264;28;20028;-58
2021/11/14 10:36:06;;;;;;;1.63;1.23;;;12.90;99.90;;;;;;5046148;28;20119;-57
2021/11/14 10:38:38;;;;;;;1.70;1.50;;;12.80;99.90;;;;;;5049757;28;20451;-57
2021/11/14 10:41:10;;;;;;;2.30;1.50;;;12.70;99.90;;;;;;5048138;28;20052;-58
2021/11/14 10:43:40;;;;;;;2.33;1.52;;;12.80;99.90;;;;;;5044760;28;20115;-58
2021/11/14 10:46:15;;;;;;;2.17;1.75;;;12.80;99.90;;;;;;5050115;28;20024;-57
2021/11/14 10:48:41;;;;;;;4.00;2.17;;;12.80;99.90;;;;;;5048228;28;20108;-59
2021/11/14 10:51:11;;;;;;;2.92;1.95;;;12.80;99.90;;;;;;5053125;28;20411;-56
2021/11/14 10:53:37;;;;;;;2.70;1.98;;;12.90;99.90;;;;;;5045876;28;20100;-56
2021/11/14 10:56:11;;;;;;;1.92;1.48;;;13.00;99.90;;;;;;5048014;28;20056;-55
2021/11/14 10:58:41;;;;;;;2.47;2.28;;;12.80;99.90;;;;;;5047788;28;20030;-57
2021/11/14 11:01:10;;;;;;;2.40;2.05;;;12.80;99.90;;;;;;5049853;28;20056;-58
2021/11/14 11:03:39;;;;;;;2.28;1.92;;;12.90;99.90;;;;;;5049129;28;20429;-54
2021/11/14 11:06:07;;;;;;;2.40;1.60;;;12.90;99.90;;;;;;5046614;28;20364;-56
2021/11/14 11:08:35;;;;;;;2.35;1.50;;;12.80;99.90;;;;;;5045334;28;20040;-54
2021/11/14 11:11:05;;;;;;;2.75;1.65;;;12.80;99.90;;;;;;5048020;28;20363;-58
2021/11/14 11:13:36;;;;;;;2.67;1.83;;;12.80;99.90;;;;;;5049696;28;20784;-57
2021/11/14 11:16:10;;;;;;;2.05;1.85;;;12.80;99.90;;;;;;5032798;28;20471;-54
2021/11/14 11:18:38;;;;;;;1.65;1.55;;;12.90;99.90;;;;;;5049745;28;20028;-57
2021/11/14 11:21:06;;;;;;;1.45;1.20;;;12.90;99.90;;;;;;5052570;28;20083;-53
2021/11/14 11:23:44;;;;;;;2.00;1.63;;;12.80;99.90;;;;;;5051396;28;20032;-57
2021/11/14 11:26:13;;;;;;;1.73;1.48;;;12.80;99.90;;;;;;5052611;28;20103;-56
2021/11/14 11:28:44;;;;;;;1.15;1.00;;;12.80;99.90;;;;;;5048192;28;20021;-59
2021/11/14 11:31:13;;;;;;;1.52;0.90;;;12.80;99.90;;;;;;5032946;28;20028;-58
2021/11/14 11:33:45;;;;;;;1.23;1.00;;;12.80;99.90;;;;;;5049024;28;20395;-58
2021/11/14 11:36:12;;;;;;;0.98;0.88;;;12.70;99.90;;;;;;5034119;28;20061;-57
2021/11/14 11:38:42;;;;;;;2.97;1.10;;;12.80;99.90;;;;;;5033682;28;20096;-53
2021/11/14 11:41:08;;;;;;;1.90;1.23;;;12.80;99.90;;;;;;5052399;28;20017;-55
2021/11/14 11:43:34;;;;;;;3.85;1.60;;;12.80;99.90;;;;;;5045212;28;20049;-57
2021/11/14 11:46:02;;;;;;;1.85;1.65;;;12.90;99.90;;;;;;5052397;28;20078;-57
2021/11/14 11:48:54;;;;;;;1.98;1.60;;;12.90;99.90;;;;;;5051874;28;20515;-58
2021/11/14 11:51:29;;;;;;;1.70;1.52;;;12.70;99.90;;;;;;5040831;28;20017;-55
2021/11/14 11:53:56;;;;;;;2.03;1.63;;;12.80;99.90;;;;;;5050642;28;20030;-58
2021/11/14 11:56:21;;;;;;;2.03;1.77;;;12.80;99.90;;;;;;5044684;28;20107;-56
2021/11/14 11:58:51;;;;;;;2.25;1.95;;;12.80;99.90;;;;;;5047980;28;20029;-57
2021/11/14 12:01:22;;;;;;;3.22;2.42;;;12.90;99.90;;;;;;5050746;28;20029;-58
2021/11/14 12:03:49;;;;;;;2.35;2.08;;;12.70;99.90;;;;;;5051608;28;20427;-56
2021/11/14 12:06:25;;;;;;;3.28;2.13;;;12.80;99.90;;;;;;5054857;28;20155;-58
2021/11/14 12:08:54;;;;;;;2.50;2.10;;;12.80;99.90;;;;;;5051491;28;20029;-57
2021/11/14 12:11:27;;;;;;;2.22;1.80;;;12.90;99.90;;;;;;5036059;28;20044;-54
2021/11/14 12:13:53;;;;;;;3.60;2.13;;;12.90;99.90;;;;;;5050738;28;20067;-55
2021/11/14 12:16:31;;;;;;;2.40;1.85;;;12.90;99.90;;;;;;5043880;28;20554;-58
2021/11/14 12:18:58;;;;;;;1.83;1.58;;;12.90;99.90;;;;;;5051229;28;20036;-58
2021/11/14 12:21:28;;;;;;;2.38;1.65;;;12.90;99.90;;;;;;5053314;28;20178;-56
2021/11/14 12:23:56;;;;;;;3.35;1.98;;;12.80;99.90;;;;;;5052361;28;20112;-59
2021/11/14 12:26:26;;;;;;;1.75;1.63;;;12.90;99.90;;;;;;5049063;28;20399;-56
2021/11/14 12:28:54;;;;;;;2.10;1.90;;;12.90;99.90;;;;;;5051551;28;20502;-58
2021/11/14 12:31:26;;;;;;;2.65;2.20;;;12.80;99.90;;;;;;5050244;28;20127;-57
2021/11/14 12:34:11;;;;;;;2.38;1.80;;;12.90;99.90;;;;;;5054286;28;20028;-57
2021/11/14 12:36:39;;;;;;;;;;;12.90;99.90;;;;;;5048430;28;20037;-56
2021/11/14 12:39:13;;;;;;;4.05;3.10;;;12.90;99.90;;;;;;5054137;28;19991;-59
2021/11/14 12:41:47;;;;;;;3.00;2.13;;;12.90;99.90;;;;;;5053603;28;20504;-57
2021/11/14 12:44:13;;;;;;;2.07;1.87;;;12.80;99.90;;;;;;5046534;28;20104;-56